createdAt,value
2023-02-19T00:01:37.323Z,4.18
2023-02-19T00:04:11.884Z,3.42
2023-02-19T00:06:38.330Z,3.47
2023-02-19T00:09:05.163Z,3.38
2023-02-19T00:11:33.972Z,4.97
2023-02-19T00:14:02.736Z,3.25
2023-02-19T00:16:34.466Z,3.35
2023-02-19T00:19:02.814Z,4.05
2023-02-19T00:21:30.265Z,4.57
2023-02-19T00:23:59.476Z,3.65
2023-02-19T00:26:26.674Z,3.13
2023-02-19T00:28:56.411Z,3.60
2023-02-19T00:31:25.726Z,3.17
2023-02-19T00:33:57.178Z,3.65
2023-02-19T00:36:24.946Z,2.90
2023-02-19T00:38:51.900Z,3.42
2023-02-19T00:41:20.646Z,3.80
2023-02-19T00:43:52.846Z,3.90
2023-02-19T00:46:23.616Z,3.83
2023-02-19T00:48:50.806Z,3.22
2023-02-19T00:51:17.190Z,4.43
2023-02-19T00:53:43.674Z,2.97
2023-02-19T00:56:10.214Z,3.85
2023-02-19T00:58:36.989Z,3.10
2023-02-19T01:01:05.573Z,2.70
2023-02-19T01:03:36.358Z,2.90
2023-02-19T01:06:04.278Z,2.80
2023-02-19T01:08:31.248Z,1.98
2023-02-19T01:10:58.543Z,2.17
2023-02-19T01:13:25.318Z,1.95
2023-02-19T01:15:52.135Z,1.58
2023-02-19T01:18:18.540Z,2.60
2023-02-19T01:20:45.649Z,2.08
2023-02-19T01:23:13.644Z,1.33
2023-02-19T01:25:41.565Z,1.80
2023-02-19T01:28:08.653Z,1.33
2023-02-19T01:30:36.980Z,1.55
2023-02-19T01:33:07.187Z,1.38
2023-02-19T01:35:34.065Z,1.45
2023-02-19T01:38:00.600Z,1.02
2023-02-19T01:40:27.076Z,0.63
2023-02-19T01:42:53.491Z,1.08
2023-02-19T01:45:30.009Z,0.85
2023-02-19T01:48:11.382Z,0.70
2023-02-19T01:50:47.238Z,2.92
2023-02-19T01:53:17.128Z,0.50
2023-02-19T01:55:46.201Z,1.75
2023-02-19T01:58:12.666Z,1.10
2023-02-19T02:00:39.396Z,0.65
2023-02-19T02:03:05.957Z,0.98
2023-02-19T02:05:51.075Z,0.68
2023-02-19T02:08:36.842Z,0.73
2023-02-19T02:11:03.942Z,0.68
2023-02-19T02:13:33.757Z,0.88
2023-02-19T02:16:13.801Z,1.35
2023-02-19T02:18:43.100Z,1.33
2023-02-19T02:21:29.935Z,0.60
2023-02-19T02:24:08.258Z,2.78
2023-02-19T02:26:51.099Z,0.70
2023-02-19T02:29:51.283Z,0.90
2023-02-19T02:32:24.867Z,2.00
2023-02-19T02:34:59.900Z,1.08
2023-02-19T02:37:32.222Z,1.58
2023-02-19T02:39:58.822Z,1.05
2023-02-19T02:42:28.012Z,1.17
2023-02-19T02:45:14.187Z,0.95
2023-02-19T02:47:56.693Z,0.95
2023-02-19T02:50:27.222Z,1.00
2023-02-19T02:53:19.522Z,0.70
2023-02-19T02:55:49.743Z,0.70
2023-02-19T02:58:17.950Z,1.65
2023-02-19T03:01:11.048Z,0.93
2023-02-19T03:03:41.229Z,1.25
2023-02-19T03:06:11.722Z,1.40
2023-02-19T03:08:48.037Z,0.90
2023-02-19T03:11:32.998Z,1.63
2023-02-19T03:14:35.130Z,1.25
2023-02-19T03:17:35.739Z,1.63
2023-02-19T03:20:09.438Z,1.17
2023-02-19T03:22:38.360Z,0.60
2023-02-19T03:25:32.526Z,0.85
2023-02-19T03:28:02.648Z,1.20
2023-02-19T03:30:33.482Z,1.30
2023-02-19T03:33:11.864Z,1.02
2023-02-19T03:36:00.281Z,1.02
2023-02-19T03:38:41.873Z,1.00
2023-02-19T03:41:26.368Z,0.40
2023-02-19T03:44:07.663Z,0.63
2023-02-19T03:46:57.125Z,0.95
2023-02-19T03:49:33.221Z,0.88
2023-02-19T03:52:18.959Z,0.52
2023-02-19T03:54:52.976Z,0.85
2023-02-19T03:57:29.296Z,0.90
2023-02-19T04:00:03.480Z,1.15
2023-02-19T04:02:35.937Z,0.68
2023-02-19T04:05:14.776Z,0.85
2023-02-19T04:07:46.517Z,0.52
2023-02-19T04:10:14.985Z,0.65
2023-02-19T04:12:45.682Z,0.68
2023-02-19T04:15:17.142Z,0.38
2023-02-19T04:17:52.635Z,1.00
2023-02-19T04:20:20.624Z,0.70
2023-02-19T04:22:47.420Z,0.73
2023-02-19T04:25:13.969Z,0.30
2023-02-19T04:27:44.309Z,0.50
2023-02-19T04:30:12.777Z,0.63
2023-02-19T04:32:39.225Z,0.30
2023-02-19T04:35:06.245Z,0.60
2023-02-19T04:37:32.650Z,0.20
2023-02-19T04:39:59.158Z,0.40
2023-02-19T04:42:25.596Z,0.20
2023-02-19T04:44:52.153Z,0.20
2023-02-19T04:47:18.681Z,1.27
2023-02-19T04:49:46.059Z,0.40
2023-02-19T04:52:13.110Z,0.30
2023-02-19T04:54:39.466Z,0.30
2023-02-19T04:57:05.986Z,0.10
2023-02-19T04:59:32.527Z,0.30
2023-02-19T05:01:58.922Z,0.25
2023-02-19T05:04:25.372Z,0.20
2023-02-19T05:06:51.753Z,0.28
2023-02-19T05:09:18.401Z,0.55
2023-02-19T05:11:45.444Z,0.17
2023-02-19T05:14:12.001Z,0.17
2023-02-19T05:16:38.361Z,0.40
2023-02-19T05:19:04.774Z,0.35
2023-02-19T05:21:31.250Z,1.85
2023-02-19T05:23:57.711Z,0.20
2023-02-19T05:26:24.168Z,0.25
2023-02-19T05:28:52.330Z,0.20
2023-02-19T05:31:20.089Z,0.63
2023-02-19T05:33:50.843Z,0.77
2023-02-19T05:36:18.909Z,0.25
2023-02-19T05:38:47.462Z,0.30
2023-02-19T05:41:16.891Z,0.95
2023-02-19T05:43:45.229Z,0.28
2023-02-19T05:46:15.358Z,0.38
2023-02-19T05:48:43.568Z,0.30
2023-02-19T05:51:12.974Z,0.32
2023-02-19T05:53:40.701Z,0.50
2023-02-19T05:56:40.316Z,0.60
2023-02-19T05:59:16.247Z,0.68
2023-02-19T06:01:43.348Z,0.93
2023-02-19T06:04:14.145Z,0.75
2023-02-19T06:06:41.622Z,0.63
2023-02-19T06:09:08.896Z,0.82
2023-02-19T06:11:35.527Z,0.88
2023-02-19T06:14:02.330Z,0.60
2023-02-19T06:16:29.225Z,0.82
2023-02-19T06:18:55.757Z,0.93
2023-02-19T06:21:22.194Z,1.55
2023-02-19T06:23:49.684Z,1.40
2023-02-19T06:26:21.953Z,1.45
2023-02-19T06:28:50.177Z,1.75
2023-02-19T06:31:18.297Z,1.17
2023-02-19T06:33:45.178Z,3.83
2023-02-19T06:36:14.348Z,2.17
2023-02-19T06:38:41.055Z,2.05
2023-02-19T06:41:09.089Z,1.98
2023-02-19T06:43:36.070Z,1.55
2023-02-19T06:46:04.776Z,1.90
2023-02-19T06:48:32.597Z,2.08
2023-02-19T06:50:59.229Z,1.92
2023-02-19T06:53:25.609Z,1.85
2023-02-19T06:56:23.202Z,1.33
2023-02-19T06:58:49.818Z,2.95
2023-02-19T07:01:16.368Z,2.72
2023-02-19T07:03:42.746Z,1.75
2023-02-19T07:06:09.222Z,2.20
2023-02-19T07:08:35.581Z,4.70
2023-02-19T07:11:01.904Z,2.92
2023-02-19T07:13:28.425Z,3.97
2023-02-19T07:16:03.036Z,2.20
2023-02-19T07:18:30.173Z,2.10
2023-02-19T07:21:06.125Z,1.42
2023-02-19T07:23:32.554Z,2.35
2023-02-19T07:25:58.968Z,3.95
2023-02-19T07:28:25.361Z,2.28
2023-02-19T07:30:51.834Z,1.77
2023-02-19T07:33:18.415Z,2.25
2023-02-19T07:35:48.947Z,2.97
2023-02-19T07:38:20.312Z,2.67
2023-02-19T07:41:01.322Z,2.13
2023-02-19T07:43:34.308Z,2.13
2023-02-19T07:46:05.510Z,2.13
2023-02-19T07:51:00.272Z,1.83
2023-02-19T07:53:27.970Z,2.05
2023-02-19T07:55:58.645Z,1.55
2023-02-19T07:58:25.024Z,2.88
2023-02-19T08:00:51.462Z,1.75
2023-02-19T08:03:18.079Z,2.10
2023-02-19T08:05:44.933Z,1.98
2023-02-19T08:08:14.163Z,1.67
2023-02-19T08:10:59.975Z,1.52
2023-02-19T08:13:29.949Z,1.30
2023-02-19T08:16:18.458Z,1.42
2023-02-19T08:18:48.503Z,2.33
2023-02-19T08:21:18.032Z,2.25
2023-02-19T08:23:46.163Z,1.98
2023-02-19T08:26:12.658Z,1.08
2023-02-19T08:28:39.182Z,1.00
2023-02-19T08:31:07.204Z,1.38
2023-02-19T08:33:34.206Z,1.83
2023-02-19T08:36:05.974Z,1.48
2023-02-19T08:38:35.789Z,1.30
2023-02-19T08:41:13.581Z,0.90
2023-02-19T08:43:41.540Z,1.20
2023-02-19T08:46:10.226Z,0.75
2023-02-19T08:48:37.229Z,0.98
2023-02-19T08:51:08.302Z,0.95
2023-02-19T08:56:12.527Z,1.00
2023-02-19T09:01:14.635Z,1.15
2023-02-19T09:03:41.819Z,0.82
2023-02-19T09:06:14.488Z,1.17
2023-02-19T09:08:40.892Z,1.30
2023-02-19T09:11:07.385Z,3.25
2023-02-19T09:13:34.044Z,0.60
2023-02-19T09:16:02.171Z,0.88
2023-02-19T09:18:28.577Z,0.80
2023-02-19T09:20:55.115Z,0.85
2023-02-19T09:23:21.519Z,1.10
2023-02-19T09:25:48.055Z,0.40
2023-02-19T09:28:15.516Z,0.95
2023-02-19T09:30:42.060Z,0.47
2023-02-19T09:33:08.429Z,1.02
2023-02-19T09:35:38.005Z,0.30
2023-02-19T09:38:04.456Z,0.52
2023-02-19T09:40:31.090Z,0.40
2023-02-19T09:42:57.693Z,0.50
2023-02-19T09:45:26.143Z,0.40
2023-02-19T09:47:57.781Z,0.73
2023-02-19T09:50:34.244Z,0.40
2023-02-19T09:53:04.537Z,0.25
2023-02-19T09:55:32.718Z,1.33
2023-02-19T09:58:02.270Z,0.70
2023-02-19T10:00:34.503Z,1.98
2023-02-19T10:03:17.237Z,2.05
2023-02-19T10:05:43.751Z,0.88
2023-02-19T10:08:19.370Z,1.00
2023-02-19T10:10:46.247Z,1.95
2023-02-19T10:13:27.674Z,1.42
2023-02-19T10:16:00.616Z,0.70
2023-02-19T10:18:32.202Z,0.82
2023-02-19T10:20:58.648Z,1.20
2023-02-19T10:23:26.244Z,0.98
2023-02-19T10:25:57.079Z,1.77
2023-02-19T10:28:28.409Z,0.95
2023-02-19T10:30:57.303Z,2.15
2023-02-19T10:33:24.069Z,2.38
2023-02-19T10:35:59.847Z,3.83
2023-02-19T10:38:32.714Z,1.23
2023-02-19T10:41:13.236Z,0.90
2023-02-19T10:43:43.665Z,2.30
2023-02-19T10:46:21.095Z,1.80
2023-02-19T10:48:54.698Z,1.33
2023-02-19T10:51:30.312Z,1.83
2023-02-19T10:54:04.687Z,1.85
2023-02-19T10:56:31.333Z,2.15
2023-02-19T10:59:26.182Z,2.25
2023-02-19T11:02:01.015Z,1.77
2023-02-19T11:04:34.153Z,4.35
2023-02-19T11:07:11.456Z,3.53
2023-02-19T11:09:40.063Z,3.03
2023-02-19T11:12:09.474Z,1.67
2023-02-19T11:14:36.481Z,2.22
2023-02-19T11:17:05.557Z,2.85
2023-02-19T11:19:38.064Z,1.45
2023-02-19T11:22:26.388Z,1.42
2023-02-19T11:24:57.318Z,1.40
2023-02-19T11:27:25.426Z,2.15
2023-02-19T11:29:51.828Z,1.35
2023-02-19T11:32:24.624Z,1.60
2023-02-19T11:34:51.791Z,1.13
2023-02-19T11:37:21.048Z,0.90
2023-02-19T11:39:49.377Z,0.90
2023-02-19T11:42:29.412Z,1.10
2023-02-19T11:45:28.303Z,1.88
2023-02-19T11:48:09.998Z,1.30
2023-02-19T11:50:57.751Z,1.60
2023-02-19T11:53:37.132Z,1.73
2023-02-19T11:56:33.656Z,2.42
2023-02-19T11:59:01.645Z,1.40
2023-02-19T12:01:53.931Z,2.42
2023-02-19T12:05:08.539Z,4.10
2023-02-19T12:08:00.146Z,1.67
2023-02-19T12:10:48.761Z,1.15
2023-02-19T12:13:34.301Z,1.42
2023-02-19T12:16:04.705Z,1.67
2023-02-19T12:18:42.093Z,2.17
2023-02-19T12:21:32.429Z,1.85
2023-02-19T12:24:17.166Z,1.70
2023-02-19T12:27:11.187Z,2.63
2023-02-19T12:30:17.127Z,2.08
2023-02-19T12:33:04.486Z,1.30
2023-02-19T12:35:56.925Z,2.30
2023-02-19T12:38:55.620Z,1.88
2023-02-19T12:41:51.889Z,1.48
2023-02-19T12:44:33.347Z,2.17
2023-02-19T12:47:01.483Z,2.35
2023-02-19T12:49:35.062Z,1.20
2023-02-19T12:52:15.999Z,2.00
2023-02-19T12:54:45.754Z,1.08
2023-02-19T12:57:20.710Z,1.48
2023-02-19T12:59:56.101Z,3.03
2023-02-19T13:02:29.921Z,1.73
2023-02-19T13:05:03.887Z,1.67
2023-02-19T13:07:44.434Z,1.55
2023-02-19T13:10:10.890Z,1.48
2023-02-19T13:12:41.042Z,2.13
2023-02-19T13:15:17.683Z,3.25
2023-02-19T13:17:48.879Z,2.78
2023-02-19T13:20:42.230Z,1.67
2023-02-19T13:23:35.986Z,2.40
2023-02-19T13:26:23.291Z,4.32
2023-02-19T13:29:07.203Z,3.78
2023-02-19T13:32:01.853Z,2.17
2023-02-19T13:34:48.036Z,1.73
2023-02-19T13:37:16.243Z,1.75
2023-02-19T13:39:49.865Z,2.78
2023-02-19T13:42:36.645Z,1.10
2023-02-19T13:45:06.303Z,2.42
2023-02-19T13:47:56.100Z,1.60
2023-02-19T13:50:30.632Z,2.15
2023-02-19T13:53:01.846Z,2.78
2023-02-19T13:55:49.666Z,1.33
2023-02-19T13:58:36.056Z,4.05
2023-02-19T14:01:08.100Z,1.73
2023-02-19T14:03:34.501Z,1.10
2023-02-19T14:06:07.660Z,2.45
2023-02-19T14:08:49.131Z,2.08
2023-02-19T14:11:16.161Z,1.25
2023-02-19T14:13:51.538Z,1.33
2023-02-19T14:16:43.045Z,1.10
2023-02-19T14:19:36.383Z,1.95
2023-02-19T14:22:41.569Z,2.72
2023-02-19T14:25:14.932Z,2.97
2023-02-19T14:27:42.858Z,1.30
2023-02-19T14:30:12.475Z,1.33
2023-02-19T14:32:43.416Z,1.60
2023-02-19T14:37:55.454Z,3.45
2023-02-19T14:40:33.307Z,3.95
2023-02-19T14:43:01.236Z,1.35
2023-02-19T14:45:30.561Z,2.28
2023-02-19T14:47:58.106Z,2.97
2023-02-19T14:50:31.384Z,1.23
2023-02-19T14:53:02.844Z,2.25
2023-02-19T14:55:37.776Z,3.10
2023-02-19T14:58:13.312Z,3.30
2023-02-19T15:00:41.730Z,3.55
2023-02-19T15:03:32.702Z,2.10
2023-02-19T15:06:08.856Z,2.65
2023-02-19T15:08:48.323Z,6.28
2023-02-19T15:11:19.126Z,2.53
2023-02-19T15:13:51.088Z,2.78
2023-02-19T15:16:25.555Z,2.55
2023-02-19T15:18:55.131Z,3.53
2023-02-19T15:21:32.732Z,2.72
2023-02-19T15:24:05.130Z,3.67
2023-02-19T15:26:43.111Z,2.25
2023-02-19T15:29:15.545Z,2.13
2023-02-19T15:31:56.745Z,2.63
2023-02-19T15:34:29.679Z,3.03
2023-02-19T15:37:10.993Z,3.22
2023-02-19T15:39:46.268Z,8.93
2023-02-19T15:42:19.973Z,9.85
2023-02-19T15:45:06.700Z,2.67
2023-02-19T15:47:41.099Z,3.22
2023-02-19T15:50:15.732Z,3.22
2023-02-19T15:52:55.080Z,3.35
2023-02-19T15:55:39.302Z,3.88
2023-02-19T15:58:20.330Z,3.55
2023-02-19T16:00:51.982Z,2.97
2023-02-19T16:03:21.370Z,4.95
2023-02-19T16:06:02.501Z,3.38
2023-02-19T16:08:34.466Z,6.85
2023-02-19T16:11:04.075Z,4.03
2023-02-19T16:13:33.192Z,5.07
2023-02-19T16:16:22.665Z,3.25
2023-02-19T16:18:51.480Z,3.88
2023-02-19T16:21:22.697Z,3.90
2023-02-19T16:26:18.434Z,3.90
2023-02-19T16:28:49.689Z,3.47
2023-02-19T16:31:16.386Z,4.57
2023-02-19T16:33:46.117Z,4.53
2023-02-19T16:36:26.435Z,10.55
2023-02-19T16:39:08.195Z,4.85
2023-02-19T16:41:59.241Z,3.17
2023-02-19T16:44:25.923Z,2.90
2023-02-19T16:46:55.792Z,3.47
2023-02-19T16:49:23.604Z,2.13
2023-02-19T16:51:51.284Z,4.60
2023-02-19T16:54:17.698Z,3.60
2023-02-19T16:56:44.044Z,5.57
2023-02-19T16:59:10.507Z,3.03
2023-02-19T17:01:37.808Z,4.57
2023-02-19T17:04:10.822Z,3.63
2023-02-19T17:06:38.141Z,4.00
2023-02-19T17:09:06.408Z,3.60
2023-02-19T17:11:32.808Z,4.28
2023-02-19T17:13:59.189Z,3.13
2023-02-19T17:16:28.888Z,2.42
2023-02-19T17:18:56.153Z,5.22
2023-02-19T17:21:29.036Z,2.35
2023-02-19T17:23:56.691Z,3.55
2023-02-19T17:26:25.670Z,3.05
2023-02-19T17:28:52.164Z,4.30
2023-02-19T17:31:18.656Z,4.43
2023-02-19T17:33:45.619Z,4.60
2023-02-19T17:36:21.625Z,4.35
2023-02-19T17:38:48.223Z,4.32
2023-02-19T17:41:14.795Z,4.18
2023-02-19T17:43:41.195Z,4.47
2023-02-19T17:46:14.392Z,6.80
2023-02-19T17:48:40.873Z,5.53
2023-02-19T17:51:07.244Z,5.70
2023-02-19T17:53:33.595Z,3.42
2023-02-19T17:56:00.028Z,7.20
2023-02-19T17:58:26.509Z,16.33
2023-02-19T18:00:52.939Z,5.50
2023-02-19T18:03:19.560Z,5.13
2023-02-19T18:05:45.918Z,5.90
2023-02-19T18:08:12.574Z,3.92
2023-02-19T18:10:39.026Z,4.45
2023-02-19T18:13:05.445Z,6.40
2023-02-19T18:15:32.010Z,6.35
2023-02-19T18:17:58.424Z,8.07
2023-02-19T18:20:28.960Z,8.98
2023-02-19T18:22:56.085Z,4.47
2023-02-19T18:25:23.197Z,4.40
2023-02-19T18:27:50.068Z,3.10
2023-02-19T18:30:19.023Z,3.38
2023-02-19T18:32:49.379Z,5.75
2023-02-19T18:35:17.320Z,4.53
2023-02-19T18:37:44.007Z,3.92
2023-02-19T18:40:11.328Z,6.97
2023-02-19T18:42:37.742Z,3.50
2023-02-19T18:45:04.373Z,4.60
2023-02-19T18:47:30.832Z,8.10
2023-02-19T18:49:58.595Z,5.93
2023-02-19T18:52:26.400Z,3.95
2023-02-19T18:54:55.198Z,3.45
2023-02-19T18:57:23.360Z,5.40
2023-02-19T18:59:50.045Z,5.20
2023-02-19T19:02:17.187Z,6.72
2023-02-19T19:04:43.673Z,8.50
2023-02-19T19:07:10.703Z,7.45
2023-02-19T19:09:38.284Z,3.75
2023-02-19T19:12:05.168Z,5.93
2023-02-19T19:14:31.657Z,6.43
2023-02-19T19:16:58.270Z,3.95
2023-02-19T19:19:24.710Z,3.65
2023-02-19T19:21:53.439Z,4.35
2023-02-19T19:24:21.134Z,3.45
2023-02-19T19:26:48.745Z,7.03
2023-02-19T19:29:17.590Z,4.43
2023-02-19T19:31:44.757Z,6.68
2023-02-19T19:34:12.457Z,5.00
2023-02-19T19:36:38.998Z,5.55
2023-02-19T19:39:05.893Z,5.32
2023-02-19T19:41:32.413Z,4.50
2023-02-19T19:44:02.367Z,4.10
2023-02-19T19:46:28.827Z,4.82
2023-02-19T19:48:55.447Z,4.20
2023-02-19T19:51:22.147Z,5.97
2023-02-19T19:53:49.281Z,9.35
2023-02-19T19:56:17.259Z,6.18
2023-02-19T19:58:43.713Z,6.47
2023-02-19T20:01:10.743Z,5.97
2023-02-19T20:03:39.687Z,5.82
2023-02-19T20:06:06.510Z,6.68
2023-02-19T20:08:32.955Z,4.40
2023-02-19T20:11:00.429Z,5.40
2023-02-19T20:13:29.364Z,6.88
2023-02-19T20:15:56.394Z,4.65
2023-02-19T20:18:25.123Z,4.80
2023-02-19T20:20:51.629Z,5.20
2023-02-19T20:23:18.133Z,7.28
2023-02-19T20:25:44.671Z,7.22
2023-02-19T20:28:11.165Z,4.63
2023-02-19T20:30:37.625Z,6.55
2023-02-19T20:33:04.505Z,9.60
2023-02-19T20:35:31.752Z,6.00
2023-02-19T20:37:58.199Z,11.68
2023-02-19T20:40:27.375Z,15.02
2023-02-19T20:42:54.260Z,4.50
2023-02-19T20:45:21.429Z,3.67
2023-02-19T20:47:47.958Z,8.18
2023-02-19T20:50:17.060Z,5.20
2023-02-19T20:52:43.580Z,6.25
2023-02-19T20:55:10.020Z,5.22
2023-02-19T20:57:37.324Z,6.15
2023-02-19T21:00:05.771Z,5.28
2023-02-19T21:02:32.263Z,3.50
2023-02-19T21:04:58.819Z,4.45
2023-02-19T21:07:26.135Z,4.38
2023-02-19T21:09:53.365Z,4.18
2023-02-19T21:12:21.365Z,3.58
2023-02-19T21:14:47.743Z,5.35
2023-02-19T21:17:14.117Z,3.47
2023-02-19T21:19:40.662Z,5.00
2023-02-19T21:22:07.336Z,5.20
2023-02-19T21:24:33.813Z,6.60
2023-02-19T21:27:00.323Z,4.03
2023-02-19T21:29:27.171Z,10.30
2023-02-19T21:31:55.982Z,2.42
2023-02-19T21:34:25.718Z,3.20
2023-02-19T21:36:52.505Z,3.17
2023-02-19T21:39:22.093Z,3.58
2023-02-19T21:41:50.031Z,3.85
2023-02-19T21:44:17.231Z,3.53
2023-02-19T21:46:43.975Z,3.10
2023-02-19T21:49:11.469Z,3.65
2023-02-19T21:51:40.458Z,1.85
2023-02-19T21:54:08.396Z,1.88
2023-02-19T21:56:36.554Z,2.17
2023-02-19T21:59:03.564Z,1.15
2023-02-19T22:01:38.638Z,1.48
2023-02-19T22:04:07.070Z,1.80
2023-02-19T22:06:34.234Z,1.40
2023-02-19T22:09:01.520Z,0.95
2023-02-19T22:11:28.417Z,2.83
2023-02-19T22:13:54.895Z,2.10
2023-02-19T22:16:21.859Z,1.55
2023-02-19T22:18:53.377Z,1.95
2023-02-19T22:21:21.034Z,3.30
2023-02-19T22:23:49.627Z,0.88
2023-02-19T22:26:29.068Z,3.45
2023-02-19T22:28:56.008Z,1.67
2023-02-19T22:31:25.376Z,4.95
2023-02-19T22:33:52.877Z,1.20
2023-02-19T22:36:22.887Z,1.95
2023-02-19T22:38:49.640Z,2.40
2023-02-19T22:41:17.430Z,2.38
2023-02-19T22:43:44.266Z,2.22
2023-02-19T22:46:13.694Z,1.77
2023-02-19T22:48:40.459Z,2.72
2023-02-19T22:51:15.561Z,2.58
2023-02-19T22:53:46.800Z,1.23
2023-02-19T22:58:41.911Z,1.88
2023-02-19T23:01:09.591Z,1.13
2023-02-19T23:03:52.015Z,2.35
2023-02-19T23:06:26.336Z,1.98
2023-02-19T23:08:54.480Z,2.40
2023-02-19T23:11:31.355Z,4.15
2023-02-19T23:16:25.081Z,3.70
2023-02-19T23:18:51.857Z,2.75
2023-02-19T23:21:21.407Z,4.43
2023-02-19T23:23:48.323Z,5.20
2023-02-19T23:26:16.305Z,3.25
2023-02-19T23:28:44.073Z,5.05
2023-02-19T23:31:11.601Z,4.65
2023-02-19T23:33:38.228Z,5.03
2023-02-19T23:36:05.371Z,7.00
2023-02-19T23:38:31.904Z,6.55
2023-02-19T23:40:58.797Z,5.43
2023-02-19T23:43:25.574Z,3.67
2023-02-19T23:45:52.142Z,4.10
2023-02-19T23:48:18.781Z,6.40
2023-02-19T23:50:45.422Z,5.28
2023-02-19T23:53:11.889Z,5.63
2023-02-19T23:55:38.365Z,4.63
2023-02-19T23:58:04.734Z,6.55
